sensor_id;sensor_type;location;lat;lon;timestamp;pressure;altitude;pressure_sealevel;temperature;humidity
27840;BME280;15207;42.182;24.308;2023-02-23T00:01:37;99149.47;;;7.80;68.31
27840;BME280;15207;42.182;24.308;2023-02-23T00:04:04;99144.91;;;7.69;68.26
27840;BME280;15207;42.182;24.308;2023-02-23T00:06:32;99139.16;;;7.62;67.93
27840;BME280;15207;42.182;24.308;2023-02-23T00:08:58;99148.53;;;7.55;68.04
27840;BME280;15207;42.182;24.308;2023-02-23T00:11:25;99151.19;;;7.42;68.40
27840;BME280;15207;42.182;24.308;2023-02-23T00:13:51;99145.97;;;7.40;68.16
27840;BME280;15207;42.182;24.308;2023-02-23T00:16:20;99149.69;;;7.38;68.23
27840;BME280;15207;42.182;24.308;2023-02-23T00:18:47;99156.06;;;7.35;67.93
27840;BME280;15207;42.182;24.308;2023-02-23T00:21:17;99156.81;;;7.24;68.04
27840;BME280;15207;42.182;24.308;2023-02-23T00:23:56;99157.53;;;7.13;68.71
27840;BME280;15207;42.182;24.308;2023-02-23T00:26:23;99159.19;;;7.01;69.36
27840;BME280;15207;42.182;24.308;2023-02-23T00:28:50;99151.63;;;6.95;69.48
27840;BME280;15207;42.182;24.308;2023-02-23T00:31:17;99155.00;;;6.84;70.32
27840;BME280;15207;42.182;24.308;2023-02-23T00:33:43;99149.44;;;6.74;71.46
27840;BME280;15207;42.182;24.308;2023-02-23T00:36:11;99163.91;;;6.70;71.59
27840;BME280;15207;42.182;24.308;2023-02-23T00:38:39;99157.16;;;6.65;71.84
27840;BME280;15207;42.182;24.308;2023-02-23T00:41:13;99158.00;;;6.65;72.13
27840;BME280;15207;42.182;24.308;2023-02-23T00:43:44;99149.13;;;6.79;71.68
27840;BME280;15207;42.182;24.308;2023-02-23T00:46:16;99152.59;;;6.67;71.84
27840;BME280;15207;42.182;24.308;2023-02-23T00:48:44;99153.28;;;6.56;72.67
27840;BME280;15207;42.182;24.308;2023-02-23T00:51:10;99150.75;;;6.40;73.83
27840;BME280;15207;42.182;24.308;2023-02-23T00:53:36;99148.34;;;6.22;74.36
27840;BME280;15207;42.182;24.308;2023-02-23T00:56:05;99154.22;;;6.27;74.74
27840;BME280;15207;42.182;24.308;2023-02-23T00:58:31;99151.19;;;6.19;76.76
27840;BME280;15207;42.182;24.308;2023-02-23T01:00:56;99153.84;;;6.19;76.29
27840;BME280;15207;42.182;24.308;2023-02-23T01:03:24;99152.06;;;6.05;75.01
27840;BME280;15207;42.182;24.308;2023-02-23T01:05:50;99166.84;;;5.80;74.72
27840;BME280;15207;42.182;24.308;2023-02-23T01:08:17;99158.47;;;5.86;75.17
27840;BME280;15207;42.182;24.308;2023-02-23T01:10:44;99152.59;;;5.81;77.27
27840;BME280;15207;42.182;24.308;2023-02-23T01:13:17;99157.16;;;5.79;77.33
27840;BME280;15207;42.182;24.308;2023-02-23T01:15:43;99157.34;;;5.76;76.87
27840;BME280;15207;42.182;24.308;2023-02-23T01:18:11;99165.66;;;5.55;76.97
27840;BME280;15207;42.182;24.308;2023-02-23T01:20:37;99161.69;;;5.48;77.41
27840;BME280;15207;42.182;24.308;2023-02-23T01:23:08;99164.34;;;5.48;77.21
27840;BME280;15207;42.182;24.308;2023-02-23T01:25:34;99161.78;;;5.46;77.28
27840;BME280;15207;42.182;24.308;2023-02-23T01:28:00;99158.63;;;5.39;77.05
27840;BME280;15207;42.182;24.308;2023-02-23T01:30:26;99165.56;;;5.42;77.29
27840;BME280;15207;42.182;24.308;2023-02-23T01:32:51;99165.28;;;5.32;76.52
27840;BME280;15207;42.182;24.308;2023-02-23T01:35:17;99161.47;;;5.36;75.45
27840;BME280;15207;42.182;24.308;2023-02-23T01:37:43;99157.16;;;5.19;73.09
27840;BME280;15207;42.182;24.308;2023-02-23T01:40:15;99161.25;;;4.94;72.20
27840;BME280;15207;42.182;24.308;2023-02-23T01:42:44;99163.59;;;4.84;72.80
27840;BME280;15207;42.182;24.308;2023-02-23T01:47:50;99169.84;;;4.83;75.17
27840;BME280;15207;42.182;24.308;2023-02-23T01:50:16;99168.03;;;4.84;76.46
27840;BME280;15207;42.182;24.308;2023-02-23T01:52:45;99163.59;;;4.84;78.27
27840;BME280;15207;42.182;24.308;2023-02-23T01:55:12;99162.72;;;4.84;79.00
27840;BME280;15207;42.182;24.308;2023-02-23T01:57:40;99166.34;;;4.67;78.69
27840;BME280;15207;42.182;24.308;2023-02-23T02:00:07;99168.94;;;4.36;77.86
27840;BME280;15207;42.182;24.308;2023-02-23T02:02:40;99161.94;;;4.01;79.95
27840;BME280;15207;42.182;24.308;2023-02-23T02:05:06;99166.84;;;3.93;80.28
27840;BME280;15207;42.182;24.308;2023-02-23T02:07:37;99167.50;;;3.96;79.87
27840;BME280;15207;42.182;24.308;2023-02-23T02:10:05;99168.13;;;4.02;80.35
27840;BME280;15207;42.182;24.308;2023-02-23T02:12:42;99169.66;;;4.06;82.34
27840;BME280;15207;42.182;24.308;2023-02-23T02:15:08;99157.09;;;4.09;82.58
27840;BME280;15207;42.182;24.308;2023-02-23T02:18:18;99171.63;;;4.02;82.75
27840;BME280;15207;42.182;24.308;2023-02-23T02:37:49;99168.28;;;3.99;83.23
27840;BME280;15207;42.182;24.308;2023-02-23T02:40:44;99165.84;;;4.28;82.34
27840;BME280;15207;42.182;24.308;2023-02-23T02:46:25;99165.16;;;4.40;80.44
27840;BME280;15207;42.182;24.308;2023-02-23T02:49:02;99163.53;;;4.38;80.01
27840;BME280;15207;42.182;24.308;2023-02-23T02:51:41;99171.56;;;4.20;80.07
27840;BME280;15207;42.182;24.308;2023-02-23T02:56:39;99166.84;;;3.93;77.60
27840;BME280;15207;42.182;24.308;2023-02-23T02:59:10;99162.97;;;3.82;78.62
27840;BME280;15207;42.182;24.308;2023-02-23T03:01:56;99167.06;;;3.88;80.59
27840;BME280;15207;42.182;24.308;2023-02-23T03:04:40;99165.09;;;3.58;78.21
27840;BME280;15207;42.182;24.308;2023-02-23T03:07:38;99165.84;;;3.09;79.28
27840;BME280;15207;42.182;24.308;2023-02-23T03:10:45;99170.66;;;3.36;78.77
27840;BME280;15207;42.182;24.308;2023-02-23T03:16:22;99174.94;;;3.38;78.31
27840;BME280;15207;42.182;24.308;2023-02-23T03:22:09;99179.72;;;3.32;77.25
27840;BME280;15207;42.182;24.308;2023-02-23T03:28:12;99189.25;;;3.52;76.78
27840;BME280;15207;42.182;24.308;2023-02-23T03:34:26;99183.50;;;3.61;76.70
27840;BME280;15207;42.182;24.308;2023-02-23T03:37:24;99184.50;;;3.59;76.98
27840;BME280;15207;42.182;24.308;2023-02-23T03:40:15;99189.31;;;3.68;77.14
27840;BME280;15207;42.182;24.308;2023-02-23T03:43:06;99192.56;;;3.39;77.84
27840;BME280;15207;42.182;24.308;2023-02-23T03:45:54;99197.59;;;3.44;78.39
27840;BME280;15207;42.182;24.308;2023-02-23T03:48:40;99203.28;;;3.36;78.90
27840;BME280;15207;42.182;24.308;2023-02-23T03:51:30;99195.72;;;3.28;78.72
27840;BME280;15207;42.182;24.308;2023-02-23T03:54:40;99199.25;;;3.29;79.26
27840;BME280;15207;42.182;24.308;2023-02-23T03:57:28;99202.03;;;3.26;80.20
27840;BME280;15207;42.182;24.308;2023-02-23T04:00:21;99198.25;;;3.32;80.01
27840;BME280;15207;42.182;24.308;2023-02-23T04:03:08;99194.56;;;3.34;80.84
27840;BME280;15207;42.182;24.308;2023-02-23T04:05:56;99194.66;;;3.33;80.40
27840;BME280;15207;42.182;24.308;2023-02-23T04:08:41;99203.34;;;3.35;81.38
27840;BME280;15207;42.182;24.308;2023-02-23T04:11:34;99195.31;;;3.54;80.20
27840;BME280;15207;42.182;24.308;2023-02-23T04:14:39;99195.97;;;3.59;79.90
27840;BME280;15207;42.182;24.308;2023-02-23T04:17:08;99192.78;;;3.52;80.24
27840;BME280;15207;42.182;24.308;2023-02-23T04:19:34;99184.81;;;3.35;80.38
27840;BME280;15207;42.182;24.308;2023-02-23T04:22:00;99193.00;;;3.12;80.76
27840;BME280;15207;42.182;24.308;2023-02-23T04:24:25;99190.47;;;2.91;81.83
27840;BME280;15207;42.182;24.308;2023-02-23T04:26:51;99187.28;;;2.85;84.70
27840;BME280;15207;42.182;24.308;2023-02-23T04:29:16;99196.53;;;2.94;85.50
27840;BME280;15207;42.182;24.308;2023-02-23T04:31:42;99197.09;;;2.83;85.89
27840;BME280;15207;42.182;24.308;2023-02-23T04:34:08;99195.06;;;2.88;85.87
27840;BME280;15207;42.182;24.308;2023-02-23T04:36:33;99200.88;;;2.77;86.72
27840;BME280;15207;42.182;24.308;2023-02-23T04:38:58;99190.63;;;2.88;86.92
27840;BME280;15207;42.182;24.308;2023-02-23T04:41:24;99199.03;;;2.79;86.88
27840;BME280;15207;42.182;24.308;2023-02-23T04:43:49;99204.22;;;2.81;86.96
27840;BME280;15207;42.182;24.308;2023-02-23T04:46:15;99208.75;;;2.78;86.93
27840;BME280;15207;42.182;24.308;2023-02-23T04:48:40;99206.47;;;2.71;87.02
27840;BME280;15207;42.182;24.308;2023-02-23T04:51:06;99203.47;;;2.78;87.27
27840;BME280;15207;42.182;24.308;2023-02-23T04:53:32;99195.47;;;2.61;87.24
27840;BME280;15207;42.182;24.308;2023-02-23T04:55:58;99206.84;;;2.63;87.58
27840;BME280;15207;42.182;24.308;2023-02-23T04:58:24;99205.97;;;2.62;87.09
27840;BME280;15207;42.182;24.308;2023-02-23T05:00:49;99202.84;;;2.54;85.89
27840;BME280;15207;42.182;24.308;2023-02-23T05:03:15;99213.97;;;2.61;83.63
27840;BME280;15207;42.182;24.308;2023-02-23T05:05:42;99212.44;;;2.57;82.88
27840;BME280;15207;42.182;24.308;2023-02-23T05:08:07;99221.09;;;2.41;83.27
27840;BME280;15207;42.182;24.308;2023-02-23T05:10:33;99222.34;;;2.32;83.92
27840;BME280;15207;42.182;24.308;2023-02-23T05:12:59;99227.22;;;2.22;84.67
27840;BME280;15207;42.182;24.308;2023-02-23T05:15:26;99224.00;;;2.35;84.05
27840;BME280;15207;42.182;24.308;2023-02-23T05:17:53;99223.00;;;2.37;84.28
27840;BME280;15207;42.182;24.308;2023-02-23T05:20:19;99221.75;;;2.25;85.16
27840;BME280;15207;42.182;24.308;2023-02-23T05:22:44;99225.00;;;2.32;86.47
27840;BME280;15207;42.182;24.308;2023-02-23T05:25:10;99225.91;;;2.50;86.37
27840;BME280;15207;42.182;24.308;2023-02-23T05:27:36;99229.50;;;2.69;86.76
27840;BME280;15207;42.182;24.308;2023-02-23T05:30:03;99232.91;;;2.71;86.67
27840;BME280;15207;42.182;24.308;2023-02-23T05:32:29;99239.47;;;2.81;85.84
27840;BME280;15207;42.182;24.308;2023-02-23T05:34:55;99244.56;;;2.67;87.17
27840;BME280;15207;42.182;24.308;2023-02-23T05:37:20;99246.06;;;2.72;87.77
27840;BME280;15207;42.182;24.308;2023-02-23T05:39:46;99247.16;;;2.68;88.50
27840;BME280;15207;42.182;24.308;2023-02-23T05:42:11;99251.72;;;2.84;88.66
27840;BME280;15207;42.182;24.308;2023-02-23T05:44:37;99252.59;;;3.02;88.23
27840;BME280;15207;42.182;24.308;2023-02-23T05:47:03;99260.47;;;3.03;87.62
27840;BME280;15207;42.182;24.308;2023-02-23T05:49:28;99262.59;;;3.14;86.92
27840;BME280;15207;42.182;24.308;2023-02-23T05:51:54;99262.06;;;3.25;86.65
27840;BME280;15207;42.182;24.308;2023-02-23T05:54:19;99266.59;;;3.23;87.21
27840;BME280;15207;42.182;24.308;2023-02-23T05:56:45;99271.06;;;3.21;86.88
27840;BME280;15207;42.182;24.308;2023-02-23T05:59:10;99274.53;;;3.23;86.99
27840;BME280;15207;42.182;24.308;2023-02-23T06:01:37;99271.94;;;3.22;87.49
27840;BME280;15207;42.182;24.308;2023-02-23T06:04:03;99286.63;;;3.29;87.90
27840;BME280;15207;42.182;24.308;2023-02-23T06:06:29;99283.03;;;3.48;87.02
27840;BME280;15207;42.182;24.308;2023-02-23T06:08:54;99288.75;;;3.57;85.31
27840;BME280;15207;42.182;24.308;2023-02-23T06:11:21;99300.00;;;3.79;84.38
27840;BME280;15207;42.182;24.308;2023-02-23T06:13:46;99301.00;;;4.12;82.93
27840;BME280;15207;42.182;24.308;2023-02-23T06:16:12;99304.91;;;4.22;82.46
27840;BME280;15207;42.182;24.308;2023-02-23T06:18:38;99306.81;;;4.36;82.06
27840;BME280;15207;42.182;24.308;2023-02-23T06:21:04;99300.88;;;4.65;80.67
27840;BME280;15207;42.182;24.308;2023-02-23T06:23:30;99302.25;;;4.72;80.93
27840;BME280;15207;42.182;24.308;2023-02-23T06:25:56;99307.41;;;4.91;81.19
27840;BME280;15207;42.182;24.308;2023-02-23T06:28:24;99304.94;;;5.04;81.76
27840;BME280;15207;42.182;24.308;2023-02-23T06:30:53;99318.44;;;5.32;80.73
27840;BME280;15207;42.182;24.308;2023-02-23T06:33:19;99308.84;;;5.60;79.72
27840;BME280;15207;42.182;24.308;2023-02-23T06:35:45;99315.84;;;5.77;78.52
27840;BME280;15207;42.182;24.308;2023-02-23T06:38:11;99316.19;;;5.87;77.92
27840;BME280;15207;42.182;24.308;2023-02-23T06:40:37;99317.50;;;5.94;77.73
27840;BME280;15207;42.182;24.308;2023-02-23T06:43:03;99317.69;;;6.21;77.39
27840;BME280;15207;42.182;24.308;2023-02-23T06:45:29;99323.22;;;6.33;76.51
27840;BME280;15207;42.182;24.308;2023-02-23T06:47:56;99317.91;;;6.33;76.33
27840;BME280;15207;42.182;24.308;2023-02-23T06:50:22;99317.53;;;6.39;76.00
27840;BME280;15207;42.182;24.308;2023-02-23T06:52:47;99328.53;;;6.47;76.11
27840;BME280;15207;42.182;24.308;2023-02-23T06:55:13;99323.78;;;6.67;75.09
27840;BME280;15207;42.182;24.308;2023-02-23T06:57:40;99315.03;;;6.80;74.83
27840;BME280;15207;42.182;24.308;2023-02-23T07:00:06;99313.31;;;6.93;74.13
27840;BME280;15207;42.182;24.308;2023-02-23T07:02:32;99313.13;;;7.24;73.85
27840;BME280;15207;42.182;24.308;2023-02-23T07:04:59;99315.88;;;7.22;73.51
27840;BME280;15207;42.182;24.308;2023-02-23T07:07:24;99313.16;;;7.37;72.66
27840;BME280;15207;42.182;24.308;2023-02-23T07:09:50;99316.94;;;7.47;73.02
27840;BME280;15207;42.182;24.308;2023-02-23T07:12:16;99313.38;;;7.61;72.58
27840;BME280;15207;42.182;24.308;2023-02-23T07:14:42;99305.41;;;7.74;72.11
27840;BME280;15207;42.182;24.308;2023-02-23T07:17:07;99312.13;;;7.93;72.17
27840;BME280;15207;42.182;24.308;2023-02-23T07:19:33;99315.59;;;8.08;71.99
27840;BME280;15207;42.182;24.308;2023-02-23T07:21:58;99312.09;;;8.33;71.78
27840;BME280;15207;42.182;24.308;2023-02-23T07:24:23;99314.53;;;8.50;71.65
27840;BME280;15207;42.182;24.308;2023-02-23T07:26:49;99317.44;;;8.72;71.97
27840;BME280;15207;42.182;24.308;2023-02-23T07:29:16;99312.25;;;8.82;71.75
27840;BME280;15207;42.182;24.308;2023-02-23T07:31:43;99301.59;;;8.82;71.45
27840;BME280;15207;42.182;24.308;2023-02-23T07:34:09;99308.06;;;9.04;71.00
27840;BME280;15207;42.182;24.308;2023-02-23T07:36:34;99304.56;;;8.91;71.80
27840;BME280;15207;42.182;24.308;2023-02-23T07:39:00;99310.19;;;9.12;71.01
27840;BME280;15207;42.182;24.308;2023-02-23T07:41:26;99304.44;;;9.30;70.42
27840;BME280;15207;42.182;24.308;2023-02-23T07:43:51;99304.31;;;9.56;69.84
27840;BME280;15207;42.182;24.308;2023-02-23T07:46:17;99306.28;;;9.65;68.62
27840;BME280;15207;42.182;24.308;2023-02-23T07:48:43;99304.59;;;9.64;69.34
27840;BME280;15207;42.182;24.308;2023-02-23T07:51:10;99307.94;;;9.55;70.17
27840;BME280;15207;42.182;24.308;2023-02-23T07:53:38;99301.91;;;9.64;69.44
27840;BME280;15207;42.182;24.308;2023-02-23T07:56:04;99304.41;;;9.78;69.13
27840;BME280;15207;42.182;24.308;2023-02-23T07:58:29;99306.13;;;9.91;66.96
27840;BME280;15207;42.182;24.308;2023-02-23T08:00:55;99310.56;;;10.03;67.11
27840;BME280;15207;42.182;24.308;2023-02-23T08:03:21;99311.31;;;10.17;66.38
27840;BME280;15207;42.182;24.308;2023-02-23T08:05:46;99309.59;;;10.04;66.28
27840;BME280;15207;42.182;24.308;2023-02-23T08:08:12;99307.00;;;9.91;67.25
27840;BME280;15207;42.182;24.308;2023-02-23T08:10:38;99308.50;;;10.07;67.28
27840;BME280;15207;42.182;24.308;2023-02-23T08:13:04;99309.88;;;10.24;66.41
27840;BME280;15207;42.182;24.308;2023-02-23T08:15:29;99307.69;;;10.41;65.60
27840;BME280;15207;42.182;24.308;2023-02-23T08:17:56;99305.28;;;10.61;64.97
27840;BME280;15207;42.182;24.308;2023-02-23T08:20:22;99306.41;;;10.81;63.57
27840;BME280;15207;42.182;24.308;2023-02-23T08:22:52;99302.75;;;10.70;63.99
27840;BME280;15207;42.182;24.308;2023-02-23T08:25:18;99303.97;;;10.78;63.76
27840;BME280;15207;42.182;24.308;2023-02-23T08:27:43;99308.88;;;10.25;64.99
27840;BME280;15207;42.182;24.308;2023-02-23T08:30:10;99307.69;;;10.29;65.75
27840;BME280;15207;42.182;24.308;2023-02-23T08:32:35;99305.00;;;10.41;65.13
27840;BME280;15207;42.182;24.308;2023-02-23T08:35:01;99299.72;;;10.64;64.33
27840;BME280;15207;42.182;24.308;2023-02-23T08:37:30;99299.91;;;10.95;63.41
27840;BME280;15207;42.182;24.308;2023-02-23T08:39:56;99311.50;;;10.84;63.18
27840;BME280;15207;42.182;24.308;2023-02-23T08:42:21;99303.31;;;11.08;62.18
27840;BME280;15207;42.182;24.308;2023-02-23T08:44:47;99296.34;;;11.17;61.94
27840;BME280;15207;42.182;24.308;2023-02-23T08:47:16;99300.41;;;11.44;60.65
27840;BME280;15207;42.182;24.308;2023-02-23T08:49:47;99296.31;;;11.61;59.54
27840;BME280;15207;42.182;24.308;2023-02-23T08:52:12;99297.44;;;11.59;58.99
27840;BME280;15207;42.182;24.308;2023-02-23T08:54:37;99292.34;;;11.77;58.67
27840;BME280;15207;42.182;24.308;2023-02-23T08:57:03;99301.00;;;12.02;57.99
27840;BME280;15207;42.182;24.308;2023-02-23T08:59:29;99301.44;;;12.19;56.95
27840;BME280;15207;42.182;24.308;2023-02-23T09:01:54;99298.22;;;12.25;56.03
27840;BME280;15207;42.182;24.308;2023-02-23T09:04:19;99302.31;;;11.86;57.30
27840;BME280;15207;42.182;24.308;2023-02-23T09:06:45;99300.16;;;12.01;57.46
27840;BME280;15207;42.182;24.308;2023-02-23T09:09:15;99303.91;;;12.32;55.74
27840;BME280;15207;42.182;24.308;2023-02-23T09:11:41;99296.50;;;12.02;56.02
27840;BME280;15207;42.182;24.308;2023-02-23T09:14:07;99299.69;;;11.96;55.95
27840;BME280;15207;42.182;24.308;2023-02-23T09:16:33;99305.69;;;12.21;55.87
27840;BME280;15207;42.182;24.308;2023-02-23T09:19:00;99303.03;;;12.52;53.87
27840;BME280;15207;42.182;24.308;2023-02-23T09:21:26;99296.56;;;12.34;54.92
27840;BME280;15207;42.182;24.308;2023-02-23T09:23:54;99296.78;;;12.52;54.03
27840;BME280;15207;42.182;24.308;2023-02-23T09:26:20;99295.41;;;12.26;55.99
27840;BME280;15207;42.182;24.308;2023-02-23T09:28:46;99298.31;;;12.45;54.21
27840;BME280;15207;42.182;24.308;2023-02-23T09:31:15;99298.34;;;12.54;53.62
27840;BME280;15207;42.182;24.308;2023-02-23T09:33:40;99301.41;;;12.71;54.20
27840;BME280;15207;42.182;24.308;2023-02-23T09:36:17;99298.44;;;12.74;53.54
27840;BME280;15207;42.182;24.308;2023-02-23T09:38:46;99298.81;;;12.60;54.00
27840;BME280;15207;42.182;24.308;2023-02-23T09:46:44;99297.84;;;13.12;51.08
27840;BME280;15207;42.182;24.308;2023-02-23T09:49:22;99288.66;;;13.24;50.38
27840;BME280;15207;42.182;24.308;2023-02-23T09:51:52;99295.94;;;13.43;49.35
27840;BME280;15207;42.182;24.308;2023-02-23T09:54:22;99295.06;;;13.33;49.50
27840;BME280;15207;42.182;24.308;2023-02-23T09:56:49;99286.72;;;13.26;50.25
27840;BME280;15207;42.182;24.308;2023-02-23T09:59:17;99286.13;;;13.32;50.92
27840;BME280;15207;42.182;24.308;2023-02-23T10:04:30;99288.66;;;13.14;51.19
27840;BME280;15207;42.182;24.308;2023-02-23T10:07:04;99282.06;;;13.58;49.91
27840;BME280;15207;42.182;24.308;2023-02-23T10:09:43;99272.28;;;13.77;48.38
27840;BME280;15207;42.182;24.308;2023-02-23T10:12:12;99271.19;;;13.49;49.12
27840;BME280;15207;42.182;24.308;2023-02-23T10:15:17;99279.50;;;14.06;49.01
27840;BME280;15207;42.182;24.308;2023-02-23T10:20:24;99267.59;;;14.56;47.70
27840;BME280;15207;42.182;24.308;2023-02-23T10:22:52;99271.22;;;14.65;47.70
27840;BME280;15207;42.182;24.308;2023-02-23T10:25:24;99256.03;;;14.36;48.35
27840;BME280;15207;42.182;24.308;2023-02-23T10:27:53;99257.13;;;14.43;48.45
27840;BME280;15207;42.182;24.308;2023-02-23T10:33:03;99254.03;;;14.76;47.49
27840;BME280;15207;42.182;24.308;2023-02-23T10:35:30;99255.41;;;14.04;48.31
27840;BME280;15207;42.182;24.308;2023-02-23T10:37:56;99244.16;;;14.28;48.06
27840;BME280;15207;42.182;24.308;2023-02-23T10:40:26;99245.19;;;14.46;47.73
27840;BME280;15207;42.182;24.308;2023-02-23T10:42:54;99243.28;;;13.70;49.60
27840;BME280;15207;42.182;24.308;2023-02-23T10:45:22;99236.19;;;13.59;50.35
27840;BME280;15207;42.182;24.308;2023-02-23T10:47:57;99241.56;;;13.59;50.69
27840;BME280;15207;42.182;24.308;2023-02-23T10:50:25;99234.16;;;14.01;49.55
27840;BME280;15207;42.182;24.308;2023-02-23T10:53:26;99229.44;;;14.13;48.27
27840;BME280;15207;42.182;24.308;2023-02-23T10:56:00;99220.78;;;14.19;47.99
27840;BME280;15207;42.182;24.308;2023-02-23T10:58:26;99218.25;;;14.46;47.52
27840;BME280;15207;42.182;24.308;2023-02-23T11:00:57;99220.59;;;14.31;46.78
27840;BME280;15207;42.182;24.308;2023-02-23T11:05:52;99211.69;;;14.58;46.58
27840;BME280;15207;42.182;24.308;2023-02-23T11:08:30;99213.47;;;14.39;46.81
27840;BME280;15207;42.182;24.308;2023-02-23T11:11:00;99210.69;;;14.21;47.10
27840;BME280;15207;42.182;24.308;2023-02-23T11:13:27;99204.38;;;14.12;47.79
27840;BME280;15207;42.182;24.308;2023-02-23T11:15:58;99206.44;;;14.28;47.56
27840;BME280;15207;42.182;24.308;2023-02-23T11:18:26;99200.66;;;14.51;47.47
27840;BME280;15207;42.182;24.308;2023-02-23T11:20:51;99208.25;;;14.66;46.97
27840;BME280;15207;42.182;24.308;2023-02-23T11:23:23;99198.78;;;14.34;46.99
27840;BME280;15207;42.182;24.308;2023-02-23T11:25:54;99197.44;;;14.38;47.32
27840;BME280;15207;42.182;24.308;2023-02-23T11:28:21;99192.44;;;14.53;47.29
27840;BME280;15207;42.182;24.308;2023-02-23T11:30:49;99195.00;;;14.73;46.52
27840;BME280;15207;42.182;24.308;2023-02-23T11:33:21;99187.63;;;14.75;46.48
27840;BME280;15207;42.182;24.308;2023-02-23T11:35:56;99192.94;;;14.66;47.98
27840;BME280;15207;42.182;24.308;2023-02-23T11:38:26;99191.19;;;14.75;48.52
27840;BME280;15207;42.182;24.308;2023-02-23T11:41:03;99192.16;;;14.46;49.65
27840;BME280;15207;42.182;24.308;2023-02-23T11:43:31;99188.38;;;14.39;49.29
27840;BME280;15207;42.182;24.308;2023-02-23T11:45:59;99185.78;;;14.47;49.54
27840;BME280;15207;42.182;24.308;2023-02-23T11:50:57;99183.75;;;14.87;48.40
27840;BME280;15207;42.182;24.308;2023-02-23T11:53:30;99182.88;;;14.87;49.04
27840;BME280;15207;42.182;24.308;2023-02-23T11:56:01;99185.59;;;14.59;49.82
27840;BME280;15207;42.182;24.308;2023-02-23T12:01:07;99191.13;;;14.57;49.11
27840;BME280;15207;42.182;24.308;2023-02-23T12:03:37;99189.78;;;14.71;48.83
27840;BME280;15207;42.182;24.308;2023-02-23T12:06:08;99192.34;;;14.63;49.01
27840;BME280;15207;42.182;24.308;2023-02-23T12:08:44;99181.00;;;14.69;48.50
27840;BME280;15207;42.182;24.308;2023-02-23T12:11:12;99187.44;;;14.86;47.93
27840;BME280;15207;42.182;24.308;2023-02-23T12:13:49;99185.66;;;14.77;48.20
27840;BME280;15207;42.182;24.308;2023-02-23T12:16:25;99187.28;;;15.06;48.12
27840;BME280;15207;42.182;24.308;2023-02-23T12:22:06;99188.38;;;14.67;47.96
27840;BME280;15207;42.182;24.308;2023-02-23T12:27:25;99184.66;;;14.78;47.07
27840;BME280;15207;42.182;24.308;2023-02-23T12:32:42;99199.41;;;15.20;46.87
27840;BME280;15207;42.182;24.308;2023-02-23T12:37:48;99189.63;;;15.37;46.13
27840;BME280;15207;42.182;24.308;2023-02-23T12:40:23;99195.59;;;15.31;46.66
27840;BME280;15207;42.182;24.308;2023-02-23T12:45:38;99195.25;;;15.44;47.11
27840;BME280;15207;42.182;24.308;2023-02-23T12:48:30;99194.78;;;15.30;47.55
27840;BME280;15207;42.182;24.308;2023-02-23T12:51:04;99192.72;;;15.24;47.61
27840;BME280;15207;42.182;24.308;2023-02-23T12:53:38;99193.78;;;15.13;48.17
27840;BME280;15207;42.182;24.308;2023-02-23T13:01:15;99192.91;;;14.94;48.69
27840;BME280;15207;42.182;24.308;2023-02-23T13:07:02;99192.09;;;15.12;48.28
27840;BME280;15207;42.182;24.308;2023-02-23T13:17:59;99192.13;;;14.84;48.86
27840;BME280;15207;42.182;24.308;2023-02-23T13:20:34;99200.16;;;14.94;48.98
27840;BME280;15207;42.182;24.308;2023-02-23T13:23:36;99199.13;;;14.77;49.36
27840;BME280;15207;42.182;24.308;2023-02-23T13:29:36;99202.31;;;14.62;50.28
27840;BME280;15207;42.182;24.308;2023-02-23T13:32:07;99204.84;;;14.64;50.13
27840;BME280;15207;42.182;24.308;2023-02-23T13:34:41;99194.47;;;14.69;50.74
27840;BME280;15207;42.182;24.308;2023-02-23T13:37:10;99192.59;;;14.79;50.75
27840;BME280;15207;42.182;24.308;2023-02-23T13:48:04;99197.13;;;14.79;51.77
27840;BME280;15207;42.182;24.308;2023-02-23T13:50:43;99201.44;;;14.62;52.97
27840;BME280;15207;42.182;24.308;2023-02-23T13:56:40;99212.31;;;14.42;54.21
27840;BME280;15207;42.182;24.308;2023-02-23T13:59:18;99209.19;;;14.47;53.85
27840;BME280;15207;42.182;24.308;2023-02-23T14:01:46;99221.38;;;14.51;53.62
27840;BME280;15207;42.182;24.308;2023-02-23T14:04:14;99220.72;;;14.39;54.24
27840;BME280;15207;42.182;24.308;2023-02-23T14:06:54;99226.59;;;14.24;55.00
27840;BME280;15207;42.182;24.308;2023-02-23T14:09:28;99225.19;;;14.10;55.82
27840;BME280;15207;42.182;24.308;2023-02-23T14:22:25;99232.84;;;14.05;57.68
27840;BME280;15207;42.182;24.308;2023-02-23T14:28:03;99242.47;;;14.08;57.86
27840;BME280;15207;42.182;24.308;2023-02-23T14:30:49;99240.44;;;13.72;60.29
27840;BME280;15207;42.182;24.308;2023-02-23T14:36:01;99239.03;;;13.48;
27840;BME280;15207;42.182;24.308;2023-02-23T14:38:39;99243.56;;;13.47;62.40
27840;BME280;15207;42.182;24.308;2023-02-23T14:41:05;99247.91;;;13.09;64.40
27840;BME280;15207;42.182;24.308;2023-02-23T14:46:16;99244.06;;;13.02;65.76
27840;BME280;15207;42.182;24.308;2023-02-23T14:48:43;99232.34;;;13.03;65.98
27840;BME280;15207;42.182;24.308;2023-02-23T14:51:19;99249.44;;;12.92;66.56
27840;BME280;15207;42.182;24.308;2023-02-23T14:53:45;99256.03;;;12.78;67.67
27840;BME280;15207;42.182;24.308;2023-02-23T14:56:22;99260.25;;;12.70;68.29
27840;BME280;15207;42.182;24.308;2023-02-23T14:58:53;99264.03;;;12.58;69.17
27840;BME280;15207;42.182;24.308;2023-02-23T15:01:52;99261.75;;;12.22;71.49
27840;BME280;15207;42.182;24.308;2023-02-23T15:04:23;99264.22;;;12.14;72.40
27840;BME280;15207;42.182;24.308;2023-02-23T15:06:53;99264.88;;;11.85;74.15
27840;BME280;15207;42.182;24.308;2023-02-23T15:09:29;99255.84;;;11.86;74.33
27840;BME280;15207;42.182;24.308;2023-02-23T15:11:58;99266.03;;;11.71;75.10
27840;BME280;15207;42.182;24.308;2023-02-23T15:14:24;99271.00;;;11.54;76.02
27840;BME280;15207;42.182;24.308;2023-02-23T15:16:50;99269.44;;;11.51;76.44